Time;durP1;ratioP1;P1;durP2;ratioP2;P2;SDS_P1;SDS_P2;PMS_P1;PMS_P2;Temp;Humidity;BMP_temperature;BMP_pressure;BME280_temperature;BME280_humidity;BME280_pressure;Samples;Min_cycle;Max_cycle;Signal;HPM_P1;HPM_P2
2022/10/03 00:00:19;;;;;;;7.37;3.33;;;10.70;99.90;;;;;;5041039;28;20490;-84
2022/10/03 00:03:22;;;;;;;8.80;3.57;;;10.70;99.90;;;;;;5041812;28;20483;-85
2022/10/03 00:06:01;;;;;;;10.23;4.47;;;10.70;99.90;;;;;;5040560;28;20511;-85
2022/10/03 00:08:55;;;;;;;6.50;3.20;;;10.60;99.90;;;;;;5040257;28;20514;-85
2022/10/03 00:11:35;;;;;;;11.37;4.10;;;10.60;99.90;;;;;;5040066;28;20522;-85
2022/10/03 00:14:06;;;;;;;9.47;3.50;;;10.60;99.90;;;;;;5042680;28;20479;-85
2022/10/03 00:16:43;;;;;;;7.40;3.47;;;10.60;99.90;;;;;;5041621;28;20478;-86
2022/10/03 00:19:20;;;;;;;10.30;3.47;;;10.60;99.90;;;;;;5044887;28;20462;-85
2022/10/03 00:22:01;;;;;;;7.33;3.37;;;10.60;99.90;;;;;;5046444;28;20488;-85
2022/10/03 00:24:49;;;;;;;5.47;2.80;;;10.50;99.90;;;;;;5047396;28;20470;-85
2022/10/03 00:27:28;;;;;;;8.57;3.67;;;10.50;99.90;;;;;;5026382;28;20463;-84
2022/10/03 00:30:15;;;;;;;12.00;3.77;;;10.50;99.90;;;;;;5029412;28;20458;-84
2022/10/03 00:32:57;;;;;;;8.97;4.37;;;10.50;99.90;;;;;;5044827;28;20452;-84
2022/10/03 00:35:40;;;;;;;12.50;4.03;;;10.50;99.90;;;;;;5043972;28;20514;-84
2022/10/03 00:38:22;;;;;;;9.10;3.83;;;10.40;99.90;;;;;;5044386;28;20471;-84
2022/10/03 00:41:12;;;;;;;8.73;3.80;;;10.50;99.90;;;;;;5044310;28;20489;-85
2022/10/03 00:44:23;;;;;;;6.30;4.17;;;10.40;99.90;;;;;;5044787;28;20512;-84
2022/10/03 00:47:25;;;;;;;11.73;4.47;;;10.40;99.90;;;;;;5035192;28;20467;-84
2022/10/03 00:50:17;;;;;;;7.47;3.23;;;10.40;99.90;;;;;;5044964;28;20528;-83
2022/10/03 00:53:01;;;;;;;7.30;3.67;;;10.40;99.90;;;;;;5044312;28;20459;-84
2022/10/03 00:55:39;;;;;;;6.60;3.70;;;10.40;99.90;;;;;;5043405;28;20502;-84
2022/10/03 00:58:26;;;;;;;9.77;3.50;;;10.30;99.90;;;;;;5043026;28;20464;-84
2022/10/03 01:00:59;;;;;;;6.57;4.20;;;10.20;99.90;;;;;;5041722;28;20533;-84
2022/10/03 01:03:45;;;;;;;11.50;4.50;;;10.30;99.90;;;;;;5041730;28;20477;-84
2022/10/03 01:06:28;;;;;;;8.93;3.90;;;10.20;99.90;;;;;;5040698;28;20488;-83
2022/10/03 01:09:18;;;;;;;6.47;3.50;;;10.20;99.90;;;;;;5021582;28;20465;-83
2022/10/03 01:12:13;;;;;;;11.73;4.10;;;10.20;99.90;;;;;;5034839;28;20494;-84
2022/10/03 01:14:55;;;;;;;9.67;5.07;;;10.30;99.90;;;;;;5040852;28;20455;-84
2022/10/03 01:17:32;;;;;;;7.63;4.13;;;10.30;99.90;;;;;;5041348;28;20463;-84
2022/10/03 01:20:15;;;;;;;9.83;3.93;;;10.30;99.90;;;;;;5040033;28;20453;-83
2022/10/03 01:23:14;;;;;;;11.43;5.40;;;10.20;99.90;;;;;;5022023;28;20492;-84
2022/10/03 01:25:50;;;;;;;10.83;4.00;;;10.30;99.90;;;;;;5032645;28;20471;-84
2022/10/03 01:31:34;;;;;;;7.87;3.83;;;10.20;99.90;;;;;;5040003;28;20442;-83
2022/10/03 01:34:08;;;;;;;10.80;4.87;;;10.20;99.90;;;;;;5042646;28;20462;-85
2022/10/03 01:36:42;;;;;;;11.00;4.67;;;10.10;99.90;;;;;;5041382;28;20478;-84
2022/10/03 01:39:15;;;;;;;11.73;4.93;;;10.20;99.90;;;;;;5041762;28;20478;-84
2022/10/03 01:41:50;;;;;;;12.30;5.40;;;10.10;99.90;;;;;;5042777;28;20562;-84
2022/10/03 01:44:23;;;;;;;8.10;4.30;;;10.10;99.90;;;;;;5042235;28;20464;-84
2022/10/03 01:46:55;;;;;;;8.00;4.57;;;10.10;99.90;;;;;;5041518;28;20579;-84
2022/10/03 01:49:30;;;;;;;11.70;5.20;;;10.10;99.90;;;;;;5040591;28;20487;-84
2022/10/03 01:52:03;;;;;;;7.90;4.40;;;10.10;99.90;;;;;;5041392;28;20478;-84
2022/10/03 01:54:42;;;;;;;11.20;4.20;;;10.00;99.90;;;;;;5041733;28;20455;-83
2022/10/03 01:57:21;;;;;;;11.30;5.47;;;10.00;99.90;;;;;;5041382;28;20467;-83
2022/10/03 01:59:56;;;;;;;9.03;4.70;;;10.00;99.90;;;;;;5041615;28;20458;-84
2022/10/03 02:02:31;;;;;;;12.13;6.67;;;10.00;99.90;;;;;;5040754;28;20506;-84
2022/10/03 02:05:08;;;;;;;11.57;5.23;;;10.00;99.90;;;;;;5040837;28;20511;-84
2022/10/03 02:07:47;;;;;;;9.40;5.07;;;9.90;99.90;;;;;;5041490;28;20481;-84
2022/10/03 02:10:25;;;;;;;8.17;4.20;;;10.00;99.90;;;;;;5039845;28;20517;-86
2022/10/03 02:13:00;;;;;;;9.10;4.00;;;10.00;99.90;;;;;;5040527;28;20474;-85
2022/10/03 02:15:40;;;;;;;12.87;5.70;;;9.90;99.90;;;;;;5039999;28;20494;-85
2022/10/03 02:18:14;;;;;;;10.70;5.40;;;9.90;99.90;;;;;;5040102;28;20458;-85
2022/10/03 02:20:47;;;;;;;20.10;7.07;;;9.90;99.90;;;;;;5042499;28;20515;-84
2022/10/03 02:23:37;;;;;;;13.93;5.57;;;9.90;99.90;;;;;;5044007;28;20477;-84
2022/10/03 02:26:35;;;;;;;11.17;6.77;;;9.90;99.90;;;;;;5043286;28;20475;-84
2022/10/03 02:29:35;;;;;;;11.83;5.90;;;9.90;99.90;;;;;;5040289;28;20454;-85
2022/10/03 02:32:17;;;;;;;15.60;5.90;;;9.90;99.90;;;;;;5041129;28;20458;-85
2022/10/03 02:35:10;;;;;;;9.57;5.00;;;9.90;99.90;;;;;;5040180;28;20478;-85
2022/10/03 02:38:04;;;;;;;12.20;6.50;;;9.90;99.90;;;;;;5040753;28;20459;-85
2022/10/03 02:40:59;;;;;;;11.30;5.33;;;9.70;99.90;;;;;;5041451;28;20540;-83
2022/10/03 02:43:49;;;;;;;10.00;5.77;;;9.80;99.90;;;;;;5041519;28;20470;-84
2022/10/03 02:46:53;;;;;;;13.00;6.70;;;9.80;99.90;;;;;;5042362;28;20502;-84
2022/10/03 02:50:00;;;;;;;14.93;6.93;;;9.80;99.90;;;;;;5041800;28;20459;-84
2022/10/03 02:53:03;;;;;;;15.50;5.40;;;9.70;99.90;;;;;;5043108;28;20446;-83
2022/10/03 02:56:04;;;;;;;11.87;6.87;;;9.80;99.90;;;;;;5042885;28;20469;-83
2022/10/03 02:59:19;;;;;;;11.47;5.23;;;9.80;99.90;;;;;;5043262;28;20448;-84
2022/10/03 03:02:08;;;;;;;9.43;5.50;;;9.70;99.90;;;;;;5003602;28;20487;-84
2022/10/03 03:05:14;;;;;;;9.37;5.73;;;9.80;99.90;;;;;;5043439;28;20466;-84
2022/10/03 03:08:09;;;;;;;10.37;5.10;;;9.70;99.90;;;;;;4998760;28;20473;-84
2022/10/03 03:11:15;;;;;;;10.70;4.53;;;9.70;99.90;;;;;;5043233;28;20458;-83
2022/10/03 03:14:16;;;;;;;12.77;6.33;;;9.70;99.90;;;;;;5039884;28;20473;-84
2022/10/03 03:16:57;;;;;;;16.40;6.00;;;9.70;99.90;;;;;;5027159;28;20863;-83
2022/10/03 03:19:46;;;;;;;10.53;5.67;;;9.60;99.90;;;;;;5043226;28;20505;-84
2022/10/03 03:22:31;;;;;;;11.83;4.90;;;9.60;99.90;;;;;;5026462;28;20499;-83
2022/10/03 03:25:21;;;;;;;13.00;6.30;;;9.60;99.90;;;;;;5028897;28;20476;-83
2022/10/03 03:28:03;;;;;;;8.40;5.23;;;9.60;99.90;;;;;;5046447;28;20548;-83
2022/10/03 03:30:38;;;;;;;16.43;6.80;;;9.60;99.90;;;;;;5046664;28;20534;-83
2022/10/03 03:33:11;;;;;;;18.00;5.90;;;9.60;99.90;;;;;;5046839;28;20458;-83
2022/10/03 03:35:53;;;;;;;12.20;6.57;;;9.60;99.90;;;;;;5046299;28;20477;-85
2022/10/03 03:38:29;;;;;;;10.20;5.13;;;9.60;99.90;;;;;;5046142;28;20487;-84
2022/10/03 03:41:13;;;;;;;14.40;6.53;;;9.50;99.90;;;;;;5044232;28;20618;-84
2022/10/03 03:43:58;;;;;;;10.57;5.77;;;9.60;99.90;;;;;;5046687;28;20988;-82
2022/10/03 03:46:37;;;;;;;9.23;4.90;;;9.60;99.90;;;;;;5046399;28;20481;-84
2022/10/03 03:49:28;;;;;;;14.33;6.00;;;9.60;99.90;;;;;;5045838;28;20452;-83
2022/10/03 03:52:09;;;;;;;8.00;5.27;;;9.50;99.90;;;;;;5045960;28;20453;-85
2022/10/03 03:55:05;;;;;;;12.27;5.83;;;9.50;99.90;;;;;;5045582;28;20464;-83
2022/10/03 03:57:51;;;;;;;12.13;6.07;;;9.60;99.90;;;;;;5044877;28;20454;-84
2022/10/03 04:00:21;;;;;;;8.90;5.97;;;9.60;99.90;;;;;;5041821;28;20467;-84
2022/10/03 04:03:24;;;;;;;13.30;6.23;;;9.70;99.90;;;;;;5043033;28;20525;-84
2022/10/03 04:06:19;;;;;;;10.20;5.90;;;9.70;99.90;;;;;;5043157;28;20515;-83
2022/10/03 04:09:06;;;;;;;13.80;5.97;;;9.60;99.90;;;;;;5041873;28;20512;-84
2022/10/03 04:11:45;;;;;;;9.07;5.87;;;9.70;99.90;;;;;;5040600;28;20454;-84
2022/10/03 04:14:42;;;;;;;10.67;5.63;;;9.70;99.90;;;;;;5042382;28;20842;-83
2022/10/03 04:20:24;;;;;;;13.20;6.17;;;9.70;99.90;;;;;;5041118;28;20485;-83
2022/10/03 04:23:05;;;;;;;12.40;6.00;;;9.80;99.90;;;;;;5022442;28;20484;-84
2022/10/03 04:25:43;;;;;;;12.90;6.37;;;9.80;99.90;;;;;;5040909;28;20475;-85
2022/10/03 04:28:36;;;;;;;10.07;5.80;;;9.80;99.90;;;;;;5045543;28;20461;-85
2022/10/03 04:31:28;;;;;;;15.77;6.37;;;9.80;99.90;;;;;;5026934;28;20455;-83
2022/10/03 04:34:12;;;;;;;12.00;6.97;;;9.80;99.90;;;;;;5041048;28;20451;-84
2022/10/03 04:37:01;;;;;;;14.03;6.10;;;9.80;99.90;;;;;;5036077;28;20566;-85
2022/10/03 04:39:36;;;;;;;13.50;6.50;;;9.90;99.90;;;;;;5035614;28;20463;-84
2022/10/03 04:42:13;;;;;;;12.80;5.93;;;9.90;99.90;;;;;;5037131;28;20482;-84
2022/10/03 04:44:57;;;;;;;15.27;6.10;;;9.90;99.90;;;;;;5035596;28;20483;-83
2022/10/03 04:47:28;;;;;;;10.20;5.83;;;10.00;99.90;;;;;;5035982;28;21040;-84
2022/10/03 04:50:02;;;;;;;11.67;5.50;;;10.00;99.90;;;;;;5034932;28;20451;-83
2022/10/03 04:52:38;;;;;;;14.97;7.10;;;10.00;99.90;;;;;;5035238;28;20509;-83
2022/10/03 04:55:21;;;;;;;9.73;5.90;;;10.00;99.90;;;;;;5035322;28;20548;-83
2022/10/03 04:57:58;;;;;;;11.70;6.27;;;10.00;99.90;;;;;;5034368;28;20499;-85
2022/10/03 05:00:32;;;;;;;15.80;6.27;;;10.00;99.90;;;;;;5035054;28;20541;-84
2022/10/03 05:03:06;;;;;;;10.30;6.03;;;10.10;99.90;;;;;;5034836;28;20496;-84
2022/10/03 05:05:47;;;;;;;12.20;6.17;;;10.10;99.90;;;;;;5032383;28;20491;-84
2022/10/03 05:08:28;;;;;;;13.87;7.00;;;10.10;99.90;;;;;;5034135;28;20465;-84
2022/10/03 05:11:04;;;;;;;14.03;6.33;;;10.20;99.90;;;;;;5034031;28;20465;-84
2022/10/03 05:13:44;;;;;;;11.37;6.23;;;10.20;99.90;;;;;;5034516;28;20471;-83
2022/10/03 05:16:21;;;;;;;9.97;6.27;;;10.20;99.90;;;;;;5034509;28;21043;-84
2022/10/03 05:18:56;;;;;;;15.50;8.10;;;10.20;99.90;;;;;;5033921;28;21033;-83
2022/10/03 05:21:32;;;;;;;16.07;6.70;;;10.20;99.90;;;;;;5034224;28;20474;-83
2022/10/03 05:24:14;;;;;;;10.67;6.50;;;10.20;99.90;;;;;;5034187;28;20460;-83
2022/10/03 05:26:47;;;;;;;10.00;6.07;;;10.20;99.90;;;;;;5034871;28;20508;-84
2022/10/03 05:29:23;;;;;;;12.43;7.20;;;10.20;99.90;;;;;;5037480;28;20475;-84
2022/10/03 05:32:05;;;;;;;10.50;6.73;;;10.20;99.90;;;;;;5032011;28;20833;-86
2022/10/03 05:34:46;;;;;;;11.90;6.60;;;10.20;99.90;;;;;;5020377;28;20458;-86
2022/10/03 05:37:34;;;;;;;13.60;6.13;;;10.20;99.90;;;;;;5032887;28;20458;-86
2022/10/03 05:40:07;;;;;;;13.70;6.30;;;10.20;99.90;;;;;;5040154;28;20451;-87
2022/10/03 05:43:05;;;;;;;14.80;6.40;;;10.20;99.90;;;;;;5039779;28;20530;-86
2022/10/03 05:45:47;;;;;;;10.57;5.90;;;10.20;99.90;;;;;;5037372;28;20567;-87
2022/10/03 05:48:25;;;;;;;9.53;5.47;;;10.20;99.90;;;;;;5040240;28;20522;-86
2022/10/03 05:51:12;;;;;;;12.17;6.90;;;10.20;99.90;;;;;;5039139;28;20466;-87
2022/10/03 05:54:11;;;;;;;8.23;6.33;;;10.10;99.90;;;;;;5018247;28;20964;-87
2022/10/03 05:56:56;;;;;;;16.20;7.03;;;10.10;99.90;;;;;;5006598;28;20488;-87
2022/10/03 06:00:01;;;;;;;11.60;6.10;;;10.00;99.90;;;;;;5037498;28;20450;-87
2022/10/03 06:03:02;;;;;;;13.00;5.87;;;10.00;99.90;;;;;;5037541;28;20938;-87
2022/10/03 06:05:44;;;;;;;11.73;5.83;;;10.10;99.90;;;;;;5003842;28;20499;-87
2022/10/03 06:08:38;;;;;;;9.50;6.40;;;10.10;99.90;;;;;;5037533;28;20478;-87
2022/10/03 06:11:18;;;;;;;9.30;5.90;;;10.20;99.90;;;;;;5037552;28;20458;-87
2022/10/03 06:14:12;;;;;;;10.80;6.00;;;10.20;99.90;;;;;;5038025;28;20546;-87
2022/10/03 06:16:50;;;;;;;11.90;7.03;;;10.30;99.90;;;;;;5021695;28;20861;-87
2022/10/03 06:19:29;;;;;;;10.70;6.50;;;10.30;99.90;;;;;;5020944;28;20513;-87
2022/10/03 06:22:29;;;;;;;14.00;6.80;;;10.40;99.90;;;;;;5038255;28;20498;-87
2022/10/03 06:25:29;;;;;;;13.20;6.50;;;10.50;99.90;;;;;;5037367;28;20847;-87
2022/10/03 06:28:30;;;;;;;9.73;6.57;;;10.50;99.90;;;;;;5041896;28;20871;-87
2022/10/03 06:31:42;;;;;;;10.83;6.50;;;10.60;99.90;;;;;;5037654;28;20474;-86
2022/10/03 06:34:50;;;;;;;13.13;6.07;;;10.70;99.90;;;;;;5030044;28;20498;-88
2022/10/03 06:37:44;;;;;;;12.00;6.97;;;10.70;99.90;;;;;;4957531;29;20475;-86
2022/10/03 06:40:54;;;;;;;13.53;6.80;;;10.70;99.90;;;;;;4956625;29;20450;-87
2022/10/03 06:44:02;;;;;;;13.93;7.00;;;10.80;99.90;;;;;;5035640;28;20526;-86
2022/10/03 06:47:05;;;;;;;12.87;7.20;;;10.90;99.90;;;;;;5037795;28;20488;-86
2022/10/03 06:50:05;;;;;;;9.53;6.30;;;11.00;99.90;;;;;;5016730;28;20492;-86
2022/10/03 06:53:15;;;;;;;23.27;8.37;;;11.00;99.90;;;;;;5022189;28;20444;-86
2022/10/03 06:56:11;;;;;;;18.40;9.37;;;11.10;99.90;;;;;;5041245;28;20537;-87
2022/10/03 06:59:19;;;;;;;18.17;9.00;;;11.20;99.90;;;;;;5041083;28;20460;-86
2022/10/03 07:02:12;;;;;;;19.60;8.90;;;11.30;99.90;;;;;;5044826;28;21278;-86
2022/10/03 07:05:22;;;;;;;22.87;10.20;;;11.40;99.90;;;;;;5034102;28;20486;-87
2022/10/03 07:08:22;;;;;;;20.83;9.43;;;11.40;99.90;;;;;;5023349;28;20492;-85
2022/10/03 07:11:05;;;;;;;21.97;8.90;;;11.50;99.90;;;;;;5012491;28;20452;-87
2022/10/03 07:13:49;;;;;;;20.90;10.30;;;11.60;99.90;;;;;;5042323;28;20468;-86
2022/10/03 07:16:53;;;;;;;17.53;10.50;;;11.70;99.90;;;;;;5043527;28;20475;-87
2022/10/03 07:20:07;;;;;;;22.00;10.53;;;11.80;99.90;;;;;;5043094;28;21099;-86
2022/10/03 07:23:12;;;;;;;21.73;9.77;;;11.80;99.90;;;;;;4980393;28;20488;-87
2022/10/03 07:26:32;;;;;;;25.17;12.60;;;11.90;99.90;;;;;;4964839;28;20484;-86
2022/10/03 07:29:14;;;;;;;18.27;10.63;;;12.00;99.90;;;;;;5042119;28;20464;-87
2022/10/03 07:32:06;;;;;;;21.63;11.27;;;11.90;99.90;;;;;;5042820;28;20474;-87
2022/10/03 07:38:59;;;;;;;17.10;10.43;;;12.00;99.90;;;;;;4985709;28;20427;-85
2022/10/03 07:42:04;;;;;;;23.67;10.10;;;12.20;99.90;;;;;;4982756;28;20513;-86
2022/10/03 07:45:09;;;;;;;22.07;10.17;;;12.10;99.90;;;;;;5042796;28;20467;-86
2022/10/03 07:48:14;;;;;;;21.33;9.00;;;12.10;99.90;;;;;;5022108;28;20869;-87
2022/10/03 07:51:22;;;;;;;12.70;8.00;;;12.10;99.90;;;;;;5027985;28;20472;-87
2022/10/03 07:54:15;;;;;;;19.60;8.13;;;12.00;99.90;;;;;;5038817;28;20460;-87
2022/10/03 07:57:15;;;;;;;15.57;8.63;;;12.10;99.90;;;;;;5043106;28;20469;-86
2022/10/03 08:00:04;;;;;;;16.93;9.63;;;12.00;99.90;;;;;;5022193;28;20452;-87
2022/10/03 08:03:24;;;;;;;15.57;7.77;;;12.10;99.90;;;;;;5023494;28;20513;-87
2022/10/03 08:06:15;;;;;;;22.37;10.17;;;12.20;99.90;;;;;;5031445;28;20512;-87
2022/10/03 08:09:14;;;;;;;19.87;10.27;;;12.20;99.90;;;;;;5040689;28;20483;-86
2022/10/03 08:12:11;;;;;;;17.33;8.87;;;12.20;99.90;;;;;;5019775;28;20475;-86
2022/10/03 08:14:52;;;;;;;22.13;9.90;;;12.40;99.90;;;;;;5042819;28;20468;-87
2022/10/03 08:17:59;;;;;;;15.60;8.07;;;12.40;99.90;;;;;;5042271;28;20468;-87
2022/10/03 08:20:48;;;;;;;15.30;8.10;;;12.40;99.90;;;;;;5034181;28;20456;-88
2022/10/03 08:23:59;;;;;;;15.03;6.77;;;12.50;99.90;;;;;;5028716;28;20493;-87
2022/10/03 08:26:43;;;;;;;13.47;6.40;;;12.60;99.90;;;;;;5042497;28;20482;-87
2022/10/03 08:29:23;;;;;;;17.13;8.07;;;12.60;99.90;;;;;;5040784;28;20482;-86
2022/10/03 08:32:28;;;;;;;18.47;7.90;;;12.60;99.90;;;;;;5041050;28;20507;-86
2022/10/03 08:35:23;;;;;;;20.20;7.73;;;12.50;99.90;;;;;;5032851;28;20500;-86
2022/10/03 08:38:22;;;;;;;15.40;6.60;;;12.60;99.90;;;;;;5044147;28;20492;-86
2022/10/03 08:41:22;;;;;;;16.40;6.90;;;12.80;99.90;;;;;;5035507;28;20913;-86
2022/10/03 08:44:34;;;;;;;13.40;6.13;;;13.00;99.90;;;;;;5039321;28;20955;-86
2022/10/03 08:47:27;;;;;;;11.93;5.87;;;13.30;99.90;;;;;;5041390;28;20445;-85
2022/10/03 08:50:27;;;;;;;16.47;5.60;;;13.40;99.90;;;;;;5041440;28;20455;-87
2022/10/03 08:53:36;;;;;;;14.50;5.87;;;13.50;99.90;;;;;;5039817;28;20462;-85
2022/10/03 08:56:09;;;;;;;13.00;5.47;;;13.60;99.90;;;;;;5025437;28;20502;-86
2022/10/03 08:59:21;;;;;;;12.60;5.80;;;13.80;99.90;;;;;;5039610;28;20485;-86
2022/10/03 09:02:32;;;;;;;10.97;5.10;;;13.90;99.90;;;;;;5039880;28;20522;-86
2022/10/03 09:05:36;;;;;;;12.10;5.77;;;13.90;99.90;;;;;;5010038;28;20474;-87
2022/10/03 09:08:36;;;;;;;13.23;5.27;;;14.00;99.90;;;;;;5023726;28;20472;-86
2022/10/03 09:11:36;;;;;;;20.63;5.90;;;14.20;99.90;;;;;;5037927;28;20458;-87
2022/10/03 09:14:43;;;;;;;13.73;5.50;;;14.20;99.90;;;;;;5041032;28;20945;-86
2022/10/03 09:17:31;;;;;;;11.57;4.53;;;14.40;99.90;;;;;;5038284;28;20481;-86
2022/10/03 09:20:17;;;;;;;7.73;4.30;;;14.70;99.90;;;;;;5020042;28;20469;-87
2022/10/03 09:23:23;;;;;;;7.93;4.07;;;14.80;99.90;;;;;;5038915;28;20515;-86
2022/10/03 09:26:08;;;;;;;7.83;4.40;;;14.70;99.90;;;;;;5037045;28;20464;-86
2022/10/03 09:29:09;;;;;;;11.60;4.97;;;14.80;99.90;;;;;;5038594;28;20972;-87
2022/10/03 09:32:11;;;;;;;16.30;4.97;;;14.80;99.90;;;;;;5040653;28;20440;-87
2022/10/03 09:35:39;;;;;;;20.00;5.50;;;14.90;99.90;;;;;;5039446;28;20891;-86
2022/10/03 09:38:39;;;;;;;9.03;3.50;;;15.10;99.90;;;;;;5040702;28;20460;-86
2022/10/03 09:41:35;;;;;;;7.20;3.23;;;15.40;99.90;;;;;;5030932;28;20463;-87
2022/10/03 09:44:33;;;;;;;11.27;4.07;;;15.60;99.90;;;;;;5039299;28;20487;-87
2022/10/03 09:47:31;;;;;;;10.10;4.00;;;15.60;99.90;;;;;;5028523;28;20464;-87
2022/10/03 09:50:35;;;;;;;9.67;3.20;;;15.60;99.90;;;;;;5005280;28;20461;-87
2022/10/03 09:53:30;;;;;;;11.13;3.30;;;15.70;99.90;;;;;;5030299;28;20454;-88
2022/10/03 09:56:32;;;;;;;10.73;3.70;;;15.90;99.90;;;;;;5008325;28;20488;-86
2022/10/03 09:59:18;;;;;;;7.57;3.27;;;16.10;99.90;;;;;;5031497;28;20485;-87
2022/10/03 10:01:53;;;;;;;6.80;3.07;;;16.40;99.90;;;;;;5038738;28;20463;-86
2022/10/03 10:04:57;;;;;;;9.60;3.40;;;16.50;99.90;;;;;;5037723;28;20492;-86
2022/10/03 10:07:52;;;;;;;10.90;3.83;;;16.80;99.90;;;;;;5022354;28;20469;-87
2022/10/03 10:10:50;;;;;;;9.43;3.53;;;17.30;99.90;;;;;;5031320;28;20482;-87
2022/10/03 10:13:47;;;;;;;7.30;3.00;;;17.20;99.90;;;;;;5021055;28;20485;-87
2022/10/03 10:16:47;;;;;;;13.87;2.90;;;16.70;99.90;;;;;;5027955;28;20521;-87
2022/10/03 10:19:35;;;;;;;9.27;2.40;;;16.60;99.90;;;;;;5038192;28;20952;-86
2022/10/03 10:22:32;;;;;;;6.80;2.60;;;16.50;99.90;;;;;;5039208;28;20476;-85
2022/10/03 10:25:33;;;;;;;9.60;3.27;;;16.20;99.90;;;;;;5017427;28;20790;-85
2022/10/03 10:28:28;;;;;;;7.60;2.43;;;16.40;99.90;;;;;;5030760;28;20478;-86
2022/10/03 10:31:34;;;;;;;8.20;1.67;;;16.90;99.90;;;;;;5039638;28;20524;-83
2022/10/03 10:34:29;;;;;;;9.00;3.43;;;17.40;99.90;;;;;;5029687;28;21003;-81
2022/10/03 10:37:37;;;;;;;14.33;2.60;;;17.70;99.90;;;;;;5023541;28;20473;-86
2022/10/03 10:40:28;;;;;;;8.70;2.87;;;17.90;99.90;;;;;;5036714;28;20448;-86
2022/10/03 10:43:46;;;;;;;4.90;2.23;;;18.20;99.90;;;;;;5026633;28;20483;-85
2022/10/03 10:46:47;;;;;;;7.73;1.93;;;18.10;99.90;;;;;;5042038;28;20480;-86
2022/10/03 10:50:06;;;;;;;6.13;2.03;;;17.70;99.90;;;;;;5039055;28;20539;-84
2022/10/03 10:53:11;;;;;;;5.60;1.83;;;17.50;99.90;;;;;;5028325;28;20460;-86
2022/10/03 10:56:15;;;;;;;6.83;2.43;;;17.20;99.90;;;;;;5043433;28;20512;-86
2022/10/03 10:59:23;;;;;;;4.30;1.70;;;17.10;99.90;;;;;;5042897;28;20513;-86
2022/10/03 11:02:42;;;;;;;3.07;1.40;;;16.80;99.90;;;;;;5043046;28;20462;-86
2022/10/03 11:05:54;;;;;;;4.10;1.77;;;16.70;99.90;;;;;;5042484;28;20937;-86
2022/10/03 11:09:08;;;;;;;13.77;3.10;;;17.00;99.90;;;;;;4994248;28;20477;-86
2022/10/03 11:12:21;;;;;;;6.77;1.57;;;17.40;99.90;;;;;;5034824;28;20906;-86
2022/10/03 11:15:21;;;;;;;8.37;2.30;;;17.50;99.90;;;;;;5025841;28;20449;-87
2022/10/03 11:18:24;;;;;;;9.77;2.53;;;17.30;99.90;;;;;;5042533;28;20454;-85
2022/10/03 11:21:38;;;;;;;10.10;1.90;;;17.20;99.90;;;;;;5029407;28;20461;-86
2022/10/03 11:24:45;;;;;;;9.73;2.37;;;17.40;99.90;;;;;;5043625;28;20510;-86
2022/10/03 11:27:45;;;;;;;9.00;1.90;;;18.00;99.90;;;;;;5029399;28;20453;-86
2022/10/03 11:30:43;;;;;;;6.50;2.00;;;18.70;99.90;;;;;;5036621;28;20459;-83
2022/10/03 11:33:50;;;;;;;3.73;1.53;;;18.80;99.90;;;;;;5041925;28;20675;-85
2022/10/03 11:36:44;;;;;;;4.33;1.50;;;19.20;99.90;;;;;;5042966;28;20487;-86
2022/10/03 11:39:21;;;;;;;6.50;1.60;;;19.20;99.90;;;;;;5040795;28;20453;-86
2022/10/03 11:41:58;;;;;;;6.47;1.73;;;19.10;99.90;;;;;;5041029;28;20486;-87
2022/10/03 11:44:28;;;;;;;5.30;1.33;;;18.80;99.90;;;;;;5040723;28;20490;-87
2022/10/03 11:47:20;;;;;;;3.57;1.63;;;18.60;99.90;;;;;;5041323;28;20998;-87
2022/10/03 11:50:12;;;;;;;6.13;1.73;;;18.40;99.90;;;;;;5040818;28;20459;-87
2022/10/03 11:52:52;;;;;;;3.30;1.33;;;18.20;99.90;;;;;;5034738;28;20464;-86
2022/10/03 11:55:30;;;;;;;5.47;1.40;;;18.40;99.90;;;;;;5041379;28;20523;-88
2022/10/03 11:58:10;;;;;;;5.97;1.33;;;18.20;99.90;;;;;;5040216;28;20867;-86
2022/10/03 12:00:40;;;;;;;8.30;1.40;;;18.00;99.90;;;;;;5037523;28;20969;-87
2022/10/03 12:03:18;;;;;;;3.43;1.30;;;17.90;99.90;;;;;;5040718;28;20487;-87
2022/10/03 12:08:53;;;;;;;5.70;1.40;;;18.00;99.90;;;;;;5041311;28;21008;-87
2022/10/03 12:08:56;;;;;;;6.20;1.27;;;18.70;99.90;;;;;;5041082;28;20447;-87
2022/10/03 12:11:27;;;;;;;3.10;1.13;;;19.00;99.90;;;;;;5040311;28;20461;-86
2022/10/03 12:14:25;;;;;;;3.40;1.00;;;19.50;99.90;;;;;;5041193;28;20450;-87
2022/10/03 12:17:05;;;;;;;3.40;1.07;;;19.60;99.90;;;;;;5025466;28;20483;-86
2022/10/03 12:19:37;;;;;;;5.83;1.43;;;19.20;99.90;;;;;;5040685;28;20489;-87
2022/10/03 12:22:21;;;;;;;6.17;1.73;;;18.90;99.90;;;;;;5040297;28;20544;-86
2022/10/03 12:24:49;;;;;;;4.63;1.50;;;18.60;99.90;;;;;;5034505;28;20622;-88
2022/10/03 12:27:29;;;;;;;3.30;1.40;;;18.30;99.90;;;;;;5041024;28;20466;-87
2022/10/03 12:30:02;;;;;;;5.37;1.40;;;18.10;99.90;;;;;;5040005;28;20552;-87
2022/10/03 12:32:38;;;;;;;4.93;1.13;;;17.90;99.90;;;;;;5040079;28;20491;-87
2022/10/03 12:35:21;;;;;;;4.53;1.50;;;17.70;99.90;;;;;;5041175;28;20551;-86
2022/10/03 12:38:03;;;;;;;2.10;0.90;;;17.60;99.90;;;;;;5040997;28;20460;-85
2022/10/03 12:40:35;;;;;;;4.47;1.20;;;17.50;99.90;;;;;;5041050;28;20704;-86
2022/10/03 12:43:09;;;;;;;3.80;1.10;;;17.40;99.90;;;;;;5041586;28;20495;-87
2022/10/03 12:45:42;;;;;;;7.17;1.90;;;17.40;99.90;;;;;;5039894;28;20862;-87
2022/10/03 12:48:34;;;;;;;8.13;1.60;;;17.50;99.90;;;;;;5051212;28;20504;-87
2022/10/03 12:51:06;;;;;;;7.57;1.60;;;17.60;99.90;;;;;;5040816;28;20487;-87
2022/10/03 12:53:40;;;;;;;4.43;1.20;;;17.70;99.90;;;;;;5034253;28;20476;-87
2022/10/03 12:56:17;;;;;;;5.80;1.63;;;17.70;99.90;;;;;;5031044;28;20553;-87
2022/10/03 12:59:03;;;;;;;8.33;1.77;;;17.70;99.90;;;;;;5031356;28;20461;-87
2022/10/03 13:01:45;;;;;;;4.83;1.10;;;17.70;99.90;;;;;;5035691;28;20460;-87
2022/10/03 13:04:21;;;;;;;3.60;1.30;;;17.80;99.90;;;;;;5035097;28;20507;-87
2022/10/03 13:07:00;;;;;;;4.90;1.20;;;17.90;99.90;;;;;;5034539;28;20518;-87
2022/10/03 13:09:46;;;;;;;6.47;1.27;;;18.00;99.90;;;;;;5034048;28;20902;-89
2022/10/03 13:12:22;;;;;;;3.30;1.43;;;18.10;99.90;;;;;;5035497;28;20453;-87
2022/10/03 13:15:40;;;;;;;8.43;1.40;;;18.10;99.90;;;;;;5034957;28;20550;-87
2022/10/03 13:18:22;;;;;;;5.03;1.30;;;18.00;99.90;;;;;;5018083;28;20456;-87
2022/10/03 13:20:55;;;;;;;6.00;1.80;;;17.90;99.90;;;;;;5034792;28;20502;-87
2022/10/03 13:23:31;;;;;;;4.43;1.27;;;17.80;99.90;;;;;;5033521;28;20484;-87
2022/10/03 13:26:08;;;;;;;3.20;1.30;;;17.70;99.90;;;;;;5036325;28;20503;-87
2022/10/03 13:28:50;;;;;;;4.73;1.57;;;17.70;99.90;;;;;;5031072;28;20555;-89
2022/10/03 13:31:22;;;;;;;5.50;1.43;;;17.60;99.90;;;;;;5018570;28;20533;-89
2022/10/03 13:33:54;;;;;;;6.50;1.30;;;17.70;99.90;;;;;;5022549;28;20985;-89
2022/10/03 13:36:25;;;;;;;3.07;1.27;;;17.70;99.90;;;;;;5033828;28;20541;-89
2022/10/03 13:39:06;;;;;;;3.00;1.10;;;17.90;99.90;;;;;;5033559;28;20823;-89
2022/10/03 13:41:48;;;;;;;4.57;1.20;;;17.80;99.90;;;;;;5033484;28;20541;-88
2022/10/03 13:44:19;;;;;;;7.20;1.60;;;17.80;99.90;;;;;;5033214;28;20573;-88
2022/10/03 13:46:52;;;;;;;5.03;1.73;;;17.80;99.90;;;;;;5017950;28;20462;-89
2022/10/03 13:49:31;;;;;;;8.50;1.43;;;17.80;99.90;;;;;;5012627;28;21045;-89
2022/10/03 13:52:06;;;;;;;5.70;3.00;;;17.70;99.90;;;;;;5014168;28;20965;-89
2022/10/03 13:55:04;;;;;;;3.67;1.90;;;17.70;99.90;;;;;;5013570;28;20458;-89
2022/10/03 13:57:35;;;;;;;4.40;1.87;;;17.70;99.90;;;;;;5014623;28;20474;-89
2022/10/03 14:00:07;;;;;;;6.20;1.40;;;17.70;99.90;;;;;;5014100;28;20492;-88
2022/10/03 14:03:03;;;;;;;5.23;1.30;;;17.50;99.90;;;;;;5013512;28;20470;-88
2022/10/03 14:05:54;;;;;;;4.23;1.20;;;17.50;99.90;;;;;;5026782;28;20496;-89
2022/10/03 14:09:02;;;;;;;3.40;1.03;;;17.50;99.90;;;;;;5029827;28;20565;-89
2022/10/03 14:11:38;;;;;;;7.73;1.40;;;17.70;99.90;;;;;;4959920;28;20536;-88
2022/10/03 14:14:23;;;;;;;2.73;1.17;;;17.90;99.90;;;;;;5016765;28;20511;-88
2022/10/03 14:16:59;;;;;;;8.67;1.70;;;18.00;99.90;;;;;;5026365;28;20894;-89
2022/10/03 14:19:35;;;;;;;4.30;1.40;;;17.80;99.90;;;;;;5020595;28;20467;-88
2022/10/03 14:22:23;;;;;;;4.53;1.87;;;17.90;99.90;;;;;;5024663;28;20511;-88
2022/10/03 14:25:14;;;;;;;5.07;1.73;;;17.90;99.90;;;;;;5022239;28;20587;-89
2022/10/03 14:27:48;;;;;;;4.10;1.40;;;17.90;99.90;;;;;;5026994;28;20538;-87
2022/10/03 14:30:18;;;;;;;4.73;1.20;;;18.00;99.90;;;;;;5027261;28;20470;-88
2022/10/03 14:32:54;;;;;;;4.33;1.60;;;18.00;99.90;;;;;;5020826;28;20436;-88
2022/10/03 14:35:37;;;;;;;4.40;1.10;;;18.00;99.90;;;;;;5028905;28;20496;-88
2022/10/03 14:38:20;;;;;;;7.20;1.37;;;18.00;99.90;;;;;;5025960;28;20459;-89
2022/10/03 14:40:49;;;;;;;6.07;1.43;;;17.90;99.90;;;;;;5028723;28;20541;-89
2022/10/03 14:43:28;;;;;;;5.57;1.77;;;17.70;99.90;;;;;;5033271;28;20453;-88